Berettyoujfalu, Hungary
Current Conditions -  °F | °C
As of 5:45 PM on Sunday 23 Nov 2014 (Local Time) from LHDC Reporting Station
Broken Clouds Broken Clouds  
Wind Chill: 39°   Ceiling: 3300
Heat Index: 43°   Visibility: 6mi
Dew Point: 28°   Wind: 6mph
Humidity: 57%   Direction: 40°NE
Pressure: 30.42"   Gusts: NA
Location:  47.23°N, 21.54°E
Report Text: LHDC 231545Z 04005KT 9999 BKN033 06/M02 Q1030 NOSIG
Loading
Personal Weather Stations






























Interactive Weather Map New forecast layout! Learn more

10-Day Weather Forecast

Advertisements
Track Severe Weather on mobile